createdAt,value
2023-06-29T00:02:00.580Z,19.23
2023-06-29T00:04:27.649Z,17.97
2023-06-29T00:06:55.820Z,17.23
2023-06-29T00:09:23.854Z,17.17
2023-06-29T00:11:51.084Z,15.70
2023-06-29T00:14:18.355Z,15.77
2023-06-29T00:16:45.509Z,16.87
2023-06-29T00:19:16.035Z,15.60
2023-06-29T00:21:43.794Z,15.50
2023-06-29T00:24:13.756Z,15.33
2023-06-29T00:26:40.875Z,14.87
2023-06-29T00:29:07.886Z,14.77
2023-06-29T00:31:35.078Z,14.93
2023-06-29T00:34:02.365Z,14.13
2023-06-29T00:36:29.408Z,14.87
2023-06-29T00:38:56.433Z,16.83
2023-06-29T00:41:23.447Z,17.37
2023-06-29T00:43:50.512Z,15.53
2023-06-29T00:46:20.290Z,15.70
2023-06-29T00:48:48.844Z,15.70
2023-06-29T00:51:17.654Z,14.70
2023-06-29T00:53:45.310Z,14.70
2023-06-29T00:56:12.629Z,15.50
2023-06-29T00:58:39.996Z,15.33
2023-06-29T01:01:07.072Z,16.27
2023-06-29T01:03:34.444Z,15.93
2023-06-29T01:06:05.800Z,15.33
2023-06-29T01:08:41.209Z,15.90
2023-06-29T01:11:09.263Z,14.97
2023-06-29T01:13:37.769Z,17.00
2023-06-29T01:16:06.350Z,15.90
2023-06-29T01:18:34.714Z,17.40
2023-06-29T01:21:03.674Z,17.00
2023-06-29T01:23:38.362Z,16.63
2023-06-29T01:26:06.592Z,16.88
2023-06-29T01:28:39.417Z,15.63
2023-06-29T01:31:06.832Z,16.50
2023-06-29T01:33:35.100Z,15.57
2023-06-29T01:36:09.187Z,14.50
2023-06-29T01:38:41.653Z,16.80
2023-06-29T01:41:12.194Z,17.00
2023-06-29T01:43:39.656Z,16.20
2023-06-29T01:46:06.872Z,16.93
2023-06-29T01:48:35.840Z,16.27
2023-06-29T01:51:03.755Z,16.57
2023-06-29T01:53:32.835Z,16.83
2023-06-29T01:56:00.171Z,17.37
2023-06-29T01:58:27.141Z,15.33
2023-06-29T02:00:54.192Z,16.37
2023-06-29T02:03:21.385Z,16.30
2023-06-29T02:05:48.362Z,15.77
2023-06-29T02:08:15.301Z,14.93
2023-06-29T02:10:42.528Z,15.93
2023-06-29T02:13:09.598Z,16.07
2023-06-29T02:15:36.548Z,17.40
2023-06-29T02:18:03.497Z,16.13
2023-06-29T02:20:30.603Z,16.33
2023-06-29T02:22:57.569Z,16.27
2023-06-29T02:25:24.588Z,16.67
2023-06-29T02:27:51.569Z,16.27
2023-06-29T02:30:18.551Z,16.90
2023-06-29T02:32:45.581Z,15.47
2023-06-29T02:35:12.544Z,16.47
2023-06-29T02:37:39.512Z,16.60
2023-06-29T02:40:07.118Z,17.80
2023-06-29T02:42:34.165Z,18.27
2023-06-29T02:45:01.151Z,17.63
2023-06-29T02:47:29.551Z,18.67
2023-06-29T02:49:56.540Z,17.60
2023-06-29T02:52:23.570Z,17.63
2023-06-29T02:54:50.527Z,19.30
2023-06-29T02:57:17.637Z,19.00
2023-06-29T02:59:44.612Z,18.20
2023-06-29T03:02:11.613Z,17.10
2023-06-29T03:04:38.548Z,17.60
2023-06-29T03:07:07.879Z,18.67
2023-06-29T03:09:35.146Z,18.33
2023-06-29T03:12:02.173Z,16.97
2023-06-29T03:14:29.154Z,18.07
2023-06-29T03:16:56.234Z,17.57
2023-06-29T03:19:23.252Z,18.40
2023-06-29T03:21:50.536Z,18.20
2023-06-29T03:24:17.496Z,18.47
2023-06-29T03:26:44.498Z,18.33
2023-06-29T03:29:11.478Z,16.97
2023-06-29T03:31:38.421Z,17.83
2023-06-29T03:34:05.358Z,18.53
2023-06-29T03:36:32.460Z,16.73
2023-06-29T03:38:59.430Z,18.37
2023-06-29T03:41:26.448Z,17.87
2023-06-29T03:43:53.403Z,17.83
2023-06-29T03:46:20.352Z,18.50
2023-06-29T03:48:47.456Z,15.27
2023-06-29T03:51:15.146Z,15.60
2023-06-29T03:53:42.122Z,16.00
2023-06-29T03:56:11.474Z,16.63
2023-06-29T03:58:38.770Z,17.37
2023-06-29T04:01:05.831Z,15.67
2023-06-29T04:03:32.885Z,16.47
2023-06-29T04:06:00.460Z,14.17
2023-06-29T04:08:28.180Z,16.13
2023-06-29T04:10:55.303Z,16.40
2023-06-29T04:13:22.265Z,16.33
2023-06-29T04:15:49.169Z,16.50
2023-06-29T04:18:16.871Z,14.97
2023-06-29T04:20:44.000Z,14.97
2023-06-29T04:23:12.922Z,14.83
2023-06-29T04:25:43.751Z,13.73
2023-06-29T04:28:12.866Z,13.87
2023-06-29T04:30:46.175Z,13.10
2023-06-29T04:33:16.181Z,12.87
2023-06-29T04:35:46.628Z,11.87
2023-06-29T04:38:14.601Z,12.27
2023-06-29T04:40:41.863Z,10.73
2023-06-29T04:43:08.867Z,11.70
2023-06-29T04:45:36.164Z,11.97
2023-06-29T04:48:03.344Z,10.23
2023-06-29T04:50:36.664Z,10.57
2023-06-29T04:53:10.549Z,9.70
2023-06-29T04:55:39.362Z,10.37
2023-06-29T04:58:06.973Z,10.10
2023-06-29T05:00:34.324Z,10.57
2023-06-29T05:03:01.770Z,9.47
2023-06-29T05:05:28.945Z,9.10
2023-06-29T05:07:56.288Z,8.70
2023-06-29T05:10:24.420Z,9.07
2023-06-29T05:12:51.412Z,9.33
2023-06-29T05:15:18.510Z,8.60
2023-06-29T05:17:45.503Z,8.90
2023-06-29T05:20:14.421Z,8.70
2023-06-29T05:22:41.347Z,8.70
2023-06-29T05:25:08.648Z,9.07
2023-06-29T05:27:35.649Z,9.27
2023-06-29T05:30:03.987Z,7.97
2023-06-29T05:32:31.653Z,8.00
2023-06-29T05:34:58.677Z,9.53
2023-06-29T05:37:26.063Z,8.13
2023-06-29T05:39:53.064Z,8.83
2023-06-29T05:42:20.033Z,9.03
2023-06-29T05:44:47.099Z,9.53
2023-06-29T05:47:14.181Z,9.30
2023-06-29T05:49:41.174Z,9.67
2023-06-29T05:52:08.256Z,8.70
2023-06-29T05:54:35.289Z,8.30
2023-06-29T05:57:02.249Z,8.57
2023-06-29T05:59:31.062Z,9.03
2023-06-29T06:01:58.332Z,8.77
2023-06-29T06:04:25.554Z,8.27
2023-06-29T06:06:52.542Z,8.70
2023-06-29T06:09:19.494Z,9.10
2023-06-29T06:11:46.711Z,7.77
2023-06-29T06:14:13.642Z,7.63
2023-06-29T06:16:40.905Z,8.73
2023-06-29T06:19:07.901Z,7.70
2023-06-29T06:21:34.900Z,6.63
2023-06-29T06:24:01.820Z,8.40
2023-06-29T06:26:29.673Z,7.37
2023-06-29T06:28:56.720Z,7.37
2023-06-29T06:31:33.537Z,7.27
2023-06-29T06:34:01.979Z,6.83
2023-06-29T06:36:32.739Z,8.00
2023-06-29T06:39:00.218Z,6.77
2023-06-29T06:41:27.313Z,6.23
2023-06-29T06:43:54.478Z,6.50
2023-06-29T06:46:21.667Z,6.10
2023-06-29T06:48:49.451Z,7.23
2023-06-29T06:51:16.793Z,6.23
2023-06-29T06:53:43.777Z,6.53
2023-06-29T06:56:10.849Z,6.20
2023-06-29T06:58:37.854Z,5.97
2023-06-29T07:01:04.920Z,5.17
2023-06-29T07:03:31.992Z,6.87
2023-06-29T07:05:59.363Z,5.20
2023-06-29T07:08:26.629Z,5.60
2023-06-29T07:10:53.602Z,5.30
2023-06-29T07:13:20.604Z,5.43
2023-06-29T07:15:48.125Z,5.13
2023-06-29T07:18:15.320Z,4.63
2023-06-29T07:25:42.771Z,5.30
2023-06-29T07:28:10.192Z,5.00
2023-06-29T07:30:37.191Z,5.10
2023-06-29T07:33:04.261Z,4.73
2023-06-29T07:35:31.303Z,5.30
2023-06-29T07:37:58.265Z,5.17
2023-06-29T07:40:25.518Z,4.60
2023-06-29T07:42:52.587Z,4.40
2023-06-29T07:45:19.525Z,4.93
2023-06-29T07:47:46.706Z,4.87
2023-06-29T07:50:13.770Z,4.53
2023-06-29T07:52:41.067Z,4.20
2023-06-29T07:55:08.406Z,4.40
2023-06-29T08:00:07.922Z,3.87
2023-06-29T08:02:34.937Z,4.50
2023-06-29T08:07:33.469Z,4.17
2023-06-29T08:10:00.532Z,4.13
2023-06-29T08:12:27.503Z,8.47
2023-06-29T08:14:54.467Z,3.90
2023-06-29T08:17:21.403Z,4.23
2023-06-29T08:19:48.364Z,3.87
2023-06-29T08:22:15.300Z,4.00
2023-06-29T08:24:42.261Z,3.50
2023-06-29T08:27:09.522Z,3.37
2023-06-29T08:29:39.538Z,3.30
2023-06-29T08:32:07.469Z,3.23
2023-06-29T08:34:34.566Z,3.70
2023-06-29T08:37:01.876Z,3.30
2023-06-29T08:39:28.791Z,3.17
2023-06-29T08:41:59.080Z,3.40
2023-06-29T08:44:28.065Z,4.30
2023-06-29T08:47:00.372Z,3.40
2023-06-29T08:49:28.714Z,3.27
2023-06-29T08:52:01.099Z,3.20
2023-06-29T08:54:29.331Z,3.83
2023-06-29T08:56:57.154Z,3.77
2023-06-29T08:59:25.135Z,3.87
2023-06-29T09:01:53.302Z,3.53
2023-06-29T09:04:20.429Z,3.70
2023-06-29T09:06:48.009Z,4.07
2023-06-29T09:09:15.585Z,3.40
2023-06-29T09:11:43.835Z,3.60
2023-06-29T09:14:11.026Z,3.50
2023-06-29T09:16:53.440Z,7.23
2023-06-29T09:19:21.211Z,5.30
2023-06-29T09:21:49.106Z,3.47
2023-06-29T09:24:17.453Z,3.60
2023-06-29T09:26:45.413Z,3.00
2023-06-29T09:29:12.334Z,2.70
2023-06-29T09:31:39.368Z,2.90
2023-06-29T09:34:20.376Z,3.30
2023-06-29T09:36:48.515Z,3.47
2023-06-29T09:39:16.299Z,3.20
2023-06-29T09:41:53.254Z,3.33
2023-06-29T09:44:21.399Z,2.90
2023-06-29T09:49:07.039Z,3.20
2023-06-29T09:49:49.243Z,2.80
2023-06-29T09:52:17.488Z,3.07
2023-06-29T09:54:44.940Z,2.87
2023-06-29T09:57:12.639Z,3.50
2023-06-29T09:59:43.114Z,3.50
2023-06-29T10:02:10.245Z,3.30
2023-06-29T10:04:37.958Z,3.20
2023-06-29T10:07:18.290Z,3.10
2023-06-29T10:09:51.487Z,2.53
2023-06-29T10:12:19.697Z,3.40
2023-06-29T10:14:48.152Z,2.83
2023-06-29T10:17:22.091Z,2.50
2023-06-29T10:19:51.677Z,2.70
2023-06-29T10:22:19.902Z,2.50
2023-06-29T10:24:55.508Z,2.80
2023-06-29T10:27:29.583Z,3.87
2023-06-29T10:29:56.894Z,2.83
2023-06-29T10:32:31.968Z,2.70
2023-06-29T10:35:05.981Z,2.63
2023-06-29T10:37:47.101Z,2.83
2023-06-29T10:40:15.843Z,2.60
2023-06-29T10:42:42.895Z,2.97
2023-06-29T10:45:20.359Z,2.97
2023-06-29T10:48:01.307Z,2.80
2023-06-29T10:50:32.955Z,2.30
2023-06-29T10:53:00.986Z,3.17
2023-06-29T10:55:38.373Z,2.50
2023-06-29T10:58:15.996Z,2.90
2023-06-29T11:00:43.598Z,2.88
2023-06-29T11:03:12.363Z,2.85
2023-06-29T11:05:40.053Z,2.97
2023-06-29T11:08:08.479Z,3.17
2023-06-29T11:10:36.305Z,2.90
2023-06-29T11:13:09.272Z,2.75
2023-06-29T11:15:36.952Z,2.78
2023-06-29T11:18:06.238Z,2.63
2023-06-29T11:20:37.866Z,2.43
2023-06-29T11:23:05.185Z,3.05
2023-06-29T11:25:32.359Z,2.92
2023-06-29T11:28:00.217Z,3.00
2023-06-29T11:30:27.322Z,2.60
2023-06-29T11:32:54.933Z,2.65
2023-06-29T11:35:23.338Z,2.70
2023-06-29T11:37:52.292Z,2.42
2023-06-29T11:40:24.550Z,3.00
2023-06-29T11:42:51.864Z,2.85
2023-06-29T11:45:19.235Z,2.50
2023-06-29T11:47:52.057Z,3.00
2023-06-29T11:50:19.331Z,2.80
2023-06-29T11:52:46.868Z,2.40
2023-06-29T11:55:15.117Z,3.63
2023-06-29T11:57:43.899Z,2.58
2023-06-29T12:00:31.027Z,2.58
2023-06-29T12:02:58.870Z,4.25
2023-06-29T12:05:31.995Z,3.20
2023-06-29T12:08:06.920Z,2.83
2023-06-29T12:10:38.911Z,3.10
2023-06-29T12:13:06.785Z,2.83
2023-06-29T12:15:34.241Z,3.42
2023-06-29T12:18:14.914Z,2.95
2023-06-29T12:20:45.188Z,2.83
2023-06-29T12:23:15.008Z,2.40
2023-06-29T12:25:44.254Z,3.00
2023-06-29T12:28:11.451Z,2.85
2023-06-29T12:30:38.518Z,2.92
2023-06-29T12:33:05.635Z,2.60
2023-06-29T12:35:32.641Z,2.45
2023-06-29T12:37:59.746Z,2.50
2023-06-29T12:40:26.851Z,2.33
2023-06-29T12:42:53.930Z,2.25
2023-06-29T12:45:21.072Z,2.65
2023-06-29T12:47:48.177Z,2.50
2023-06-29T12:50:15.337Z,2.80
2023-06-29T12:52:42.319Z,2.95
2023-06-29T12:55:09.469Z,2.53
2023-06-29T12:57:36.528Z,3.40
2023-06-29T13:00:05.942Z,2.00
2023-06-29T13:02:36.021Z,2.63
2023-06-29T13:05:03.280Z,2.60
2023-06-29T13:07:30.315Z,2.20
2023-06-29T13:09:58.381Z,2.58
2023-06-29T13:12:25.397Z,2.80
2023-06-29T13:14:52.432Z,2.53
2023-06-29T13:17:19.919Z,3.07
2023-06-29T13:19:48.612Z,2.77
2023-06-29T13:22:19.338Z,2.90
2023-06-29T13:24:48.144Z,2.28
2023-06-29T13:27:15.342Z,2.57
2023-06-29T13:29:42.408Z,2.70
2023-06-29T13:32:09.866Z,3.35
2023-06-29T13:34:36.942Z,3.03
2023-06-29T13:37:04.146Z,2.80
2023-06-29T13:39:31.468Z,3.25
2023-06-29T13:41:58.506Z,3.53
2023-06-29T13:44:25.481Z,3.00
2023-06-29T13:46:52.478Z,2.70
2023-06-29T13:49:19.560Z,2.78
2023-06-29T13:51:48.498Z,2.78
2023-06-29T13:54:16.904Z,2.88
2023-06-29T13:56:44.464Z,2.47
2023-06-29T13:59:11.770Z,3.13
2023-06-29T14:01:41.241Z,3.70
2023-06-29T14:04:10.391Z,2.63
2023-06-29T14:06:39.518Z,3.17
2023-06-29T14:09:09.560Z,2.90
2023-06-29T14:11:36.989Z,2.72
2023-06-29T14:14:04.149Z,2.72
2023-06-29T14:16:31.446Z,2.60
2023-06-29T14:19:00.333Z,2.60
2023-06-29T14:21:27.493Z,2.90
2023-06-29T14:23:54.937Z,2.45
2023-06-29T14:26:22.413Z,3.00
2023-06-29T14:28:49.608Z,2.92
2023-06-29T14:31:18.443Z,2.58
2023-06-29T14:33:46.026Z,2.30
2023-06-29T14:36:13.242Z,2.35
2023-06-29T14:38:40.200Z,2.60
2023-06-29T14:41:07.108Z,2.50
2023-06-29T14:43:34.167Z,2.50
2023-06-29T14:46:01.210Z,2.80
2023-06-29T14:48:28.206Z,2.80
2023-06-29T14:50:55.709Z,2.58
2023-06-29T14:53:23.837Z,3.37
2023-06-29T14:55:51.239Z,3.20
2023-06-29T14:58:18.396Z,2.93
2023-06-29T15:00:46.046Z,2.33
2023-06-29T15:03:13.512Z,2.10
2023-06-29T15:05:40.724Z,2.40
2023-06-29T15:08:07.708Z,2.55
2023-06-29T15:10:34.664Z,2.40
2023-06-29T15:13:01.667Z,2.38
2023-06-29T15:15:28.696Z,2.60
2023-06-29T15:17:55.806Z,2.22
2023-06-29T15:20:22.984Z,2.58
2023-06-29T15:22:49.897Z,3.10
2023-06-29T15:25:16.776Z,2.40
2023-06-29T15:27:43.809Z,2.30
2023-06-29T15:30:10.978Z,2.60
2023-06-29T15:32:38.198Z,2.17
2023-06-29T15:35:06.546Z,2.60
2023-06-29T15:37:34.631Z,2.57
2023-06-29T15:40:01.651Z,2.73
2023-06-29T15:42:29.681Z,2.27
2023-06-29T15:44:56.927Z,2.38
2023-06-29T15:47:24.252Z,3.88
2023-06-29T15:49:51.263Z,2.90
2023-06-29T15:52:18.432Z,2.77
2023-06-29T15:54:45.528Z,2.55
2023-06-29T15:57:12.704Z,2.42
2023-06-29T15:59:39.840Z,2.60
2023-06-29T16:02:07.933Z,2.60
2023-06-29T16:04:35.057Z,2.90
2023-06-29T16:07:02.388Z,2.63
2023-06-29T16:09:33.331Z,2.20
2023-06-29T16:12:00.951Z,2.63
2023-06-29T16:14:27.962Z,2.73
2023-06-29T16:16:54.985Z,2.97
2023-06-29T16:19:22.183Z,2.50
2023-06-29T16:21:49.190Z,5.23
2023-06-29T16:24:16.339Z,3.23
2023-06-29T16:26:44.282Z,2.80
2023-06-29T16:29:11.216Z,2.70
2023-06-29T16:31:38.350Z,2.80
2023-06-29T16:34:05.444Z,2.70
2023-06-29T16:36:32.898Z,2.50
2023-06-29T16:39:00.090Z,2.33
2023-06-29T16:41:27.108Z,2.83
2023-06-29T16:43:55.251Z,2.70
2023-06-29T16:46:23.931Z,2.70
2023-06-29T16:49:01.004Z,2.37
2023-06-29T16:51:29.504Z,2.37
2023-06-29T16:53:57.918Z,2.23
2023-06-29T16:56:25.581Z,2.33
2023-06-29T16:58:52.804Z,2.20
2023-06-29T17:01:19.846Z,2.30
2023-06-29T17:03:47.039Z,2.17
2023-06-29T17:06:14.600Z,2.20
2023-06-29T17:08:41.723Z,2.20
2023-06-29T17:11:08.858Z,2.17
2023-06-29T17:13:36.239Z,2.50
2023-06-29T17:16:04.623Z,2.30
2023-06-29T17:18:31.719Z,2.00
2023-06-29T17:20:58.590Z,2.83
2023-06-29T17:23:25.496Z,2.07
2023-06-29T17:25:52.856Z,2.10
2023-06-29T17:28:21.334Z,2.10
2023-06-29T17:30:48.390Z,2.30
2023-06-29T17:33:16.062Z,2.07
2023-06-29T17:35:43.341Z,1.93
2023-06-29T17:38:10.572Z,1.70
2023-06-29T17:40:37.482Z,2.33
2023-06-29T17:43:04.481Z,1.93
2023-06-29T17:45:31.388Z,1.70
2023-06-29T17:47:58.590Z,1.60
2023-06-29T17:50:25.790Z,2.30
2023-06-29T17:52:52.749Z,1.70
2023-06-29T17:55:19.861Z,2.00
2023-06-29T17:57:46.874Z,1.90
2023-06-29T18:00:16.489Z,2.17
2023-06-29T18:02:43.925Z,1.80
2023-06-29T18:05:11.560Z,1.80
2023-06-29T18:07:39.120Z,2.00
2023-06-29T18:10:08.334Z,1.73
2023-06-29T18:12:36.517Z,1.87
2023-06-29T18:15:04.408Z,1.70
2023-06-29T18:17:31.509Z,2.03
2023-06-29T18:19:59.371Z,1.63
2023-06-29T18:22:26.514Z,2.00
2023-06-29T18:24:53.637Z,1.60
2023-06-29T18:27:22.149Z,2.10
2023-06-29T18:29:49.093Z,1.77
2023-06-29T18:32:16.025Z,1.83
2023-06-29T18:34:43.864Z,1.73
2023-06-29T18:37:10.872Z,1.70
2023-06-29T18:39:37.855Z,1.70
2023-06-29T18:42:05.329Z,1.63
2023-06-29T18:44:32.641Z,1.93
2023-06-29T18:47:11.292Z,1.60
2023-06-29T18:52:10.317Z,1.83
2023-06-29T18:54:37.493Z,1.80
2023-06-29T18:57:06.190Z,2.60
2023-06-29T18:59:34.579Z,1.60
2023-06-29T19:02:02.905Z,1.70
2023-06-29T19:04:30.601Z,1.90
2023-06-29T19:06:57.975Z,1.97
2023-06-29T19:09:25.169Z,1.90
2023-06-29T19:11:52.168Z,1.93
2023-06-29T19:14:19.182Z,2.27
2023-06-29T19:16:46.416Z,1.90
2023-06-29T19:19:13.525Z,1.93
2023-06-29T19:21:48.448Z,1.80
2023-06-29T19:24:17.124Z,2.17
2023-06-29T19:26:44.583Z,2.10
2023-06-29T19:29:12.621Z,2.20
2023-06-29T19:31:42.015Z,1.97
2023-06-29T19:34:10.929Z,2.50
2023-06-29T19:36:37.871Z,2.40
2023-06-29T19:39:04.814Z,2.40
2023-06-29T19:41:31.774Z,2.50
2023-06-29T19:43:58.768Z,2.20
2023-06-29T19:46:25.765Z,2.40
2023-06-29T19:48:53.012Z,2.17
2023-06-29T19:51:20.863Z,2.47
2023-06-29T19:53:48.021Z,2.63
2023-06-29T19:56:14.994Z,7.50
2023-06-29T19:58:42.102Z,5.57
2023-06-29T20:01:09.247Z,5.93
2023-06-29T20:03:36.293Z,5.73
2023-06-29T20:06:04.351Z,6.10
2023-06-29T20:08:31.303Z,5.57
2023-06-29T20:10:58.519Z,5.87
2023-06-29T20:13:25.500Z,5.10
2023-06-29T20:15:52.669Z,5.40
2023-06-29T20:18:19.717Z,4.80
2023-06-29T20:20:46.773Z,4.70
2023-06-29T20:23:13.716Z,4.60
2023-06-29T20:25:40.658Z,4.17
2023-06-29T20:28:07.726Z,5.13
2023-06-29T20:30:34.818Z,3.83
2023-06-29T20:33:01.878Z,3.40
2023-06-29T20:35:29.390Z,3.73
2023-06-29T20:37:56.359Z,3.00
2023-06-29T20:40:24.453Z,3.23
2023-06-29T20:42:51.640Z,3.33
2023-06-29T20:45:18.662Z,3.97
2023-06-29T20:47:45.805Z,3.60
2023-06-29T20:50:12.930Z,3.60
2023-06-29T20:52:40.306Z,3.53
2023-06-29T20:55:07.874Z,4.10
2023-06-29T20:57:38.658Z,3.73
2023-06-29T21:00:13.154Z,5.33
2023-06-29T21:02:40.492Z,4.40
2023-06-29T21:05:08.185Z,4.60
2023-06-29T21:07:35.842Z,4.53
2023-06-29T21:10:26.030Z,4.30
2023-06-29T21:12:53.395Z,4.27
2023-06-29T21:15:20.563Z,4.13
2023-06-29T21:17:47.778Z,4.17
2023-06-29T21:20:15.100Z,3.90
2023-06-29T21:22:42.301Z,4.10
2023-06-29T21:25:10.002Z,4.20
2023-06-29T21:27:37.932Z,4.70
2023-06-29T21:30:05.698Z,4.63
2023-06-29T21:32:32.837Z,4.67
2023-06-29T21:35:01.385Z,4.67
2023-06-29T21:37:28.577Z,4.03
2023-06-29T21:39:56.075Z,4.23
2023-06-29T21:42:23.377Z,4.63
2023-06-29T21:44:50.360Z,4.70
2023-06-29T21:47:17.437Z,3.97
2023-06-29T21:49:44.381Z,4.77
2023-06-29T21:52:11.345Z,4.77
2023-06-29T21:54:38.633Z,4.60
2023-06-29T21:57:06.069Z,5.30
2023-06-29T21:59:33.117Z,5.07
2023-06-29T22:02:01.039Z,4.63
2023-06-29T22:04:28.026Z,4.43
2023-06-29T22:07:02.821Z,4.93
2023-06-29T22:09:38.936Z,5.03
2023-06-29T22:12:06.678Z,5.63
2023-06-29T22:14:33.604Z,5.40
2023-06-29T22:17:00.555Z,5.47
2023-06-29T22:19:28.044Z,5.83
2023-06-29T22:21:58.842Z,6.00
2023-06-29T22:24:25.956Z,5.80
2023-06-29T22:26:52.942Z,6.00
2023-06-29T22:29:19.926Z,6.07
2023-06-29T22:31:47.379Z,6.63
2023-06-29T22:34:15.972Z,6.07
2023-06-29T22:36:42.895Z,6.97
2023-06-29T22:39:10.534Z,7.10
2023-06-29T22:41:37.580Z,6.67
2023-06-29T22:44:04.712Z,6.20
2023-06-29T22:46:33.101Z,6.23
2023-06-29T22:49:00.120Z,6.40
2023-06-29T22:51:27.554Z,5.73
2023-06-29T22:53:54.782Z,6.10
2023-06-29T22:56:22.374Z,6.50
2023-06-29T22:59:10.225Z,6.40
2023-06-29T23:01:37.810Z,6.70
2023-06-29T23:04:07.614Z,6.67
2023-06-29T23:06:41.968Z,7.03
2023-06-29T23:09:10.139Z,7.80
2023-06-29T23:11:38.293Z,7.57
2023-06-29T23:14:06.227Z,7.13
2023-06-29T23:16:33.723Z,8.13
2023-06-29T23:19:01.336Z,7.70
2023-06-29T23:21:28.975Z,7.13
2023-06-29T23:23:56.559Z,7.30
2023-06-29T23:26:23.836Z,8.27
2023-06-29T23:28:52.003Z,7.93
2023-06-29T23:31:19.931Z,7.47
2023-06-29T23:33:50.296Z,6.80
2023-06-29T23:36:22.515Z,7.37
2023-06-29T23:38:50.418Z,7.07
2023-06-29T23:41:18.905Z,6.70
2023-06-29T23:43:46.825Z,7.20
2023-06-29T23:46:14.472Z,7.33
2023-06-29T23:48:42.227Z,6.97
2023-06-29T23:51:09.929Z,7.07
2023-06-29T23:53:37.973Z,6.97
2023-06-29T23:56:05.658Z,6.40
2023-06-29T23:58:33.202Z,6.63
